KATY/ATY METAR and TAF weather

Enter ICAO airport designator
Station Type Date Time Source
KATY METAR 2019/02/23 02:22 UTC NOAA

KATY 230222Z AUTO 11009KT 4SM -SN FEW015 SCT024 OVC040 M07/M09 A3008 RMK AO2 P0001 T10671094


Station Type Date Time Source
KATY Decoded METAR 2019/02/23 02:22 UTC NOAA

WATERTOWN MUNICIPAL AIRPORT, SD, United States (KATY) 44-54N 097-09W 532M
Feb 22, 2019 - 09:22 PM EST / 2019.02.23 0222 UTC
Wind: from the ESE (110 degrees) at 10 MPH (9 KT):0
Visibility: 4 mile(s):0
Sky conditions: overcast
Weather: light snow
Precipitation last hour: 0.01 inches
Temperature: 19.9 F (-6.7 C)
Windchill: 8 F (-13 C):1
Dew Point: 15.1 F (-9.4 C)
Relative Humidity: 81%
Pressure (altimeter): 30.08 in. Hg (1018 hPa)
ob: KATY 230222Z AUTO 11009KT 4SM -SN FEW015 SCT024 OVC040 M07/M09 A3008 RMK AO2 P0001 T10671094
cycle: 2

Station Type Date Time Source
KATY TAF 2019/02/23 02:57 UTC NOAA

TAF
AMD KATY 230154Z 2302/2324 10008KT 5SM -SN BKN040
TEMPO 2302/2305 1/2SM SN OVC016
FM230800 14007KT P6SM VCSH OVC008
FM231500 VRB04KT P6SM VCSH OVC006
FM232200 34013G19KT P6SM OVC007


Example: see airport list